Aérodrome :
LOGIN :

S'inscrire | Disclaimer

   EN    FR    IT 

 










Légende :    VFR   VFR Marginal   IFR   IFR Intensif   IFR Très Intensif
Visi : 
Plafond : 
>= 8 km
>= 3000ft
5 à 8 km
1000 à 3000 ft
1500m à 5 km
500 à 1000 ft
800 à 1500m
200 à 500 ft
< 800m
< 200 ft
Symboles :   Orages  Brouillard  Fortes neiges  Fortes précipitations  Vent > 20 kt
SIGMETs :   Divers  Orages  Givrage  Turbulence  Onde Orograph.  Cendres Volcan.







- Altitude de l'aérodrome : 935 ft


EBFS - Florennes

DERNIER METAR :
  • 221955Z AUTO 17007KT 9999 SCT045/// BKN055/// OVC075/// 16/16 Q1013 BLU

METARs EXPIRÉS :
  • 221925Z AUTO 19005KT 9999 -RA BKN070/// OVC085/// 16/16 Q1012 BLU
  • 221855Z AUTO 21008KT 9999 FEW020/// SCT028/// BKN036/// 16/16 Q1012 BLU
  • 221825Z AUTO 20006KT 9999 -RA FEW025/// SCT029/// BKN065/// 17/16 Q1012 BLU
  • 221755Z AUTO 17006KT 9000 -RA FEW024/// BKN060/// OVC075/// 17/16 Q1012 BLU
  • 221746Z AUTO 16006KT 3800 RA FEW024/// BKN060/// BKN085/// 17/16 Q1012 GRN
  • 221740Z AUTO 17006KT 6000 RA FEW029/// SCT055/// BKN080/// 18/16 Q1012 WHT
  • 221725Z AUTO 17006KT 9999 FEW043/// BKN080/// 18/16 Q1012 BLU

Prévision TAF périmée.
Pas de NOTAMs connus pour ce terrain.



MET'MAP, la Météo Aéronautique d'un coup d'oeil ! - Copyright ORBIFLY Décembre 2007 - Disclaimer

ORBIFLY MET'MAP TEAM :

Programmation & Développement : Alexandra Zaïnal
Conception & Développement : Baudouin d'Aumeries
Co-Programmation & Développement : Marc-Olivier Méhu
Soutien technique & logistique : Manuel Goepfert

Contact : metmap@orbifly.com




SOURCES & CREDITS :

   NOAA